createdAt,value
2023-05-14T00:00:06.515Z,36.90
2023-05-14T00:02:33.296Z,39.38
2023-05-14T00:05:00.139Z,34.25
2023-05-14T00:07:30.721Z,38.03
2023-05-14T00:09:58.647Z,40.23
2023-05-14T00:12:26.634Z,38.80
2023-05-14T00:14:54.056Z,32.20
2023-05-14T00:17:20.868Z,40.75
2023-05-14T00:19:47.670Z,34.92
2023-05-14T00:22:14.433Z,33.65
2023-05-14T00:24:41.229Z,36.17
2023-05-14T00:27:07.966Z,39.70
2023-05-14T00:29:35.124Z,38.30
2023-05-14T00:32:02.632Z,38.47
2023-05-14T00:34:29.385Z,38.45
2023-05-14T00:36:56.057Z,37.22
2023-05-14T00:39:22.783Z,31.98
2023-05-14T00:41:49.652Z,37.17
2023-05-14T00:44:16.375Z,36.35
2023-05-14T00:46:43.825Z,35.15
2023-05-14T00:49:10.912Z,39.55
2023-05-14T00:51:38.083Z,32.80
2023-05-14T00:54:05.283Z,37.10
2023-05-14T00:56:32.151Z,38.42
2023-05-14T00:58:59.047Z,37.83
2023-05-14T01:01:28.703Z,36.70
2023-05-14T01:03:57.906Z,39.08
2023-05-14T01:06:32.894Z,41.92
2023-05-14T01:09:14.568Z,41.67
2023-05-14T01:12:08.694Z,44.25
2023-05-14T01:14:48.063Z,42.83
2023-05-14T01:17:20.003Z,44.20
2023-05-14T01:19:47.788Z,43.35
2023-05-14T01:22:14.676Z,45.72
2023-05-14T01:24:41.536Z,41.60
2023-05-14T01:27:23.549Z,43.53
2023-05-14T01:29:57.979Z,40.28
2023-05-14T01:32:26.340Z,44.10
2023-05-14T01:34:56.749Z,41.72
2023-05-14T01:37:25.308Z,42.45
2023-05-14T01:39:52.380Z,44.75
2023-05-14T01:42:19.161Z,42.67
2023-05-14T01:44:46.333Z,40.17
2023-05-14T01:47:13.058Z,46.67
2023-05-14T01:49:39.762Z,40.85
2023-05-14T01:52:08.521Z,39.97
2023-05-14T01:54:35.383Z,41.67
2023-05-14T01:57:02.044Z,44.45
2023-05-14T01:59:29.867Z,40.70
2023-05-14T02:01:56.727Z,48.50
2023-05-14T02:04:23.718Z,45.50
2023-05-14T02:06:50.498Z,47.75
2023-05-14T02:09:17.233Z,47.97
2023-05-14T02:11:43.937Z,48.35
2023-05-14T02:14:10.734Z,43.63
2023-05-14T02:16:37.482Z,48.40
2023-05-14T02:19:04.254Z,40.92
2023-05-14T02:21:31.950Z,45.17
2023-05-14T02:23:58.826Z,48.85
2023-05-14T02:26:25.681Z,46.25
2023-05-14T02:28:52.408Z,40.30
2023-05-14T02:31:19.578Z,41.60
2023-05-14T02:33:46.344Z,40.25
2023-05-14T02:36:13.329Z,41.35
2023-05-14T02:38:40.080Z,44.28
2023-05-14T02:41:06.876Z,41.35
2023-05-14T02:43:33.634Z,40.05
2023-05-14T02:46:00.425Z,39.88
2023-05-14T02:48:27.240Z,43.72
2023-05-14T02:50:53.992Z,43.53
2023-05-14T02:53:20.717Z,41.47
2023-05-14T02:55:47.447Z,41.72
2023-05-14T02:58:15.059Z,38.65
2023-05-14T03:00:41.791Z,41.47
2023-05-14T03:03:08.819Z,36.88
2023-05-14T03:05:36.133Z,37.60
2023-05-14T03:08:02.865Z,37.53
2023-05-14T03:10:29.637Z,39.63
2023-05-14T03:12:56.337Z,36.50
2023-05-14T03:15:23.114Z,41.42
2023-05-14T03:17:49.917Z,40.17
2023-05-14T03:20:16.760Z,43.47
2023-05-14T03:22:43.501Z,38.83
2023-05-14T03:25:10.291Z,41.55
2023-05-14T03:27:37.011Z,39.80
2023-05-14T03:30:04.360Z,39.83
2023-05-14T03:32:31.189Z,35.40
2023-05-14T03:34:58.070Z,39.75
2023-05-14T03:37:24.782Z,38.95
2023-05-14T03:39:51.505Z,46.63
2023-05-14T03:42:18.202Z,43.20
2023-05-14T03:44:45.115Z,41.45
2023-05-14T03:47:11.933Z,46.78
2023-05-14T03:49:38.685Z,37.90
2023-05-14T03:52:05.421Z,41.92
2023-05-14T03:54:32.152Z,39.92
2023-05-14T03:56:58.888Z,38.35
2023-05-14T03:59:25.708Z,38.40
2023-05-14T04:01:52.435Z,39.72
2023-05-14T04:04:19.193Z,35.38
2023-05-14T04:06:46.077Z,38.38
2023-05-14T04:09:12.939Z,39.33
2023-05-14T04:11:39.711Z,40.70
2023-05-14T04:14:06.702Z,44.03
2023-05-14T04:16:33.593Z,39.97
2023-05-14T04:19:02.516Z,41.35
2023-05-14T04:21:29.306Z,38.42
2023-05-14T04:23:56.005Z,44.25
2023-05-14T04:26:22.963Z,41.22
2023-05-14T04:28:49.786Z,44.97
2023-05-14T04:31:16.623Z,43.33
2023-05-14T04:33:43.502Z,46.35
2023-05-14T04:36:10.240Z,39.33
2023-05-14T04:38:36.972Z,37.35
2023-05-14T04:41:03.886Z,42.33
2023-05-14T04:43:30.567Z,33.42
2023-05-14T04:45:57.298Z,43.63
2023-05-14T04:48:24.030Z,39.63
2023-05-14T04:50:50.787Z,39.15
2023-05-14T04:53:17.543Z,43.03
2023-05-14T04:55:44.306Z,42.17
2023-05-14T04:58:13.513Z,45.13
2023-05-14T05:00:40.890Z,42.13
2023-05-14T05:03:07.753Z,40.30
2023-05-14T05:05:35.407Z,42.45
2023-05-14T05:08:02.185Z,45.22
2023-05-14T05:10:28.868Z,46.90
2023-05-14T05:12:55.755Z,41.30
2023-05-14T05:15:23.681Z,43.95
2023-05-14T05:17:52.092Z,47.13
2023-05-14T05:20:18.996Z,44.47
2023-05-14T05:22:45.734Z,44.05
2023-05-14T05:25:12.982Z,50.53
2023-05-14T05:27:39.761Z,44.22
2023-05-14T05:30:07.317Z,47.63
2023-05-14T05:32:34.621Z,45.92
2023-05-14T05:35:01.426Z,52.83
2023-05-14T05:37:28.176Z,53.25
2023-05-14T05:39:54.961Z,58.95
2023-05-14T05:42:22.502Z,57.95
2023-05-14T05:44:49.195Z,58.63
2023-05-14T05:47:17.106Z,53.88
2023-05-14T05:49:43.909Z,56.45
2023-05-14T05:52:10.621Z,60.05
2023-05-14T05:54:39.741Z,63.83
2023-05-14T05:57:06.548Z,69.13
2023-05-14T05:59:33.285Z,64.35
2023-05-14T06:02:00.099Z,68.20
2023-05-14T06:04:26.831Z,62.10
2023-05-14T06:06:53.864Z,56.05
2023-05-14T06:09:20.821Z,63.65
2023-05-14T06:11:47.509Z,61.03
2023-05-14T06:14:14.326Z,55.17
2023-05-14T06:16:41.293Z,54.55
2023-05-14T06:19:08.515Z,59.50
2023-05-14T06:21:35.555Z,53.97
2023-05-14T06:24:02.350Z,46.45
2023-05-14T06:26:29.139Z,49.03
2023-05-14T06:28:55.901Z,48.17
2023-05-14T06:31:22.699Z,41.45
2023-05-14T06:33:49.494Z,41.63
2023-05-14T06:36:16.482Z,39.83
2023-05-14T06:38:43.198Z,39.13
2023-05-14T06:41:09.925Z,38.40
2023-05-14T06:43:36.724Z,33.05
2023-05-14T06:46:03.574Z,35.05
2023-05-14T06:48:30.977Z,35.92
2023-05-14T06:50:57.892Z,38.55
2023-05-14T06:53:24.650Z,40.03
2023-05-14T06:55:51.476Z,31.95
2023-05-14T06:58:18.256Z,32.95
2023-05-14T07:00:45.045Z,30.63
2023-05-14T07:03:11.794Z,36.38
2023-05-14T07:05:40.559Z,36.75
2023-05-14T07:08:07.375Z,34.10
2023-05-14T07:10:34.321Z,33.53
2023-05-14T07:13:01.098Z,31.10
2023-05-14T07:15:27.914Z,33.65
2023-05-14T07:17:54.689Z,34.97
2023-05-14T07:20:23.947Z,34.47
2023-05-14T07:22:52.566Z,31.95
2023-05-14T07:25:19.312Z,33.58
2023-05-14T07:27:46.046Z,31.85
2023-05-14T07:30:13.099Z,29.95
2023-05-14T07:32:40.111Z,29.08
2023-05-14T07:35:07.350Z,28.25
2023-05-14T07:37:34.490Z,30.52
2023-05-14T07:40:01.269Z,24.95
2023-05-14T07:42:36.060Z,32.40
2023-05-14T07:45:04.943Z,28.30
2023-05-14T07:47:32.111Z,31.25
2023-05-14T07:49:59.675Z,30.25
2023-05-14T07:52:26.422Z,27.52
2023-05-14T07:54:53.373Z,31.60
2023-05-14T07:57:20.537Z,29.83
2023-05-14T07:59:48.530Z,27.23
2023-05-14T08:02:17.030Z,25.30
2023-05-14T08:04:44.268Z,29.40
2023-05-14T08:07:11.431Z,26.15
2023-05-14T08:09:38.196Z,28.52
2023-05-14T08:12:05.553Z,29.42
2023-05-14T08:14:32.392Z,26.92
2023-05-14T08:16:59.260Z,31.60
2023-05-14T08:19:27.401Z,26.10
2023-05-14T08:21:54.576Z,24.60
2023-05-14T08:24:21.399Z,21.25
2023-05-14T08:26:48.213Z,25.08
2023-05-14T08:29:16.540Z,27.63
2023-05-14T08:31:43.878Z,25.27
2023-05-14T08:34:10.742Z,23.35
2023-05-14T08:36:38.644Z,21.40
2023-05-14T08:39:07.706Z,22.90
2023-05-14T08:41:35.201Z,24.80
2023-05-14T08:44:27.976Z,23.08
2023-05-14T08:46:55.077Z,23.80
2023-05-14T08:49:42.929Z,24.33
2023-05-14T08:52:10.726Z,20.17
2023-05-14T08:54:37.689Z,20.02
2023-05-14T08:57:05.504Z,23.05
2023-05-14T08:59:32.426Z,23.83
2023-05-14T09:02:02.353Z,20.17
2023-05-14T09:04:30.076Z,22.95
2023-05-14T09:06:57.152Z,20.05
2023-05-14T09:09:23.944Z,21.50
2023-05-14T09:11:52.566Z,19.80
2023-05-14T09:14:20.376Z,19.38
2023-05-14T09:16:49.917Z,22.98
2023-05-14T09:19:19.265Z,22.77
2023-05-14T09:21:48.049Z,20.45
2023-05-14T09:24:26.115Z,21.23
2023-05-14T09:26:54.762Z,21.25
2023-05-14T09:29:21.777Z,19.63
2023-05-14T09:31:51.608Z,17.08
2023-05-14T09:34:24.639Z,19.15
2023-05-14T09:37:15.075Z,17.02
2023-05-14T09:39:41.788Z,18.55
2023-05-14T09:42:08.561Z,24.60
2023-05-14T09:44:37.904Z,19.55
2023-05-14T09:47:05.056Z,16.40
2023-05-14T09:49:31.818Z,14.80
2023-05-14T09:51:58.529Z,16.65
2023-05-14T09:54:26.925Z,23.13
2023-05-14T09:56:55.616Z,16.90
2023-05-14T09:59:22.656Z,15.93
2023-05-14T10:01:50.135Z,17.42
2023-05-14T10:04:17.433Z,14.68
2023-05-14T10:06:48.288Z,15.00
2023-05-14T10:09:19.740Z,19.20
2023-05-14T10:11:52.841Z,19.27
2023-05-14T10:14:33.745Z,14.77
2023-05-14T10:17:03.200Z,15.43
2023-05-14T10:19:36.974Z,17.30
2023-05-14T10:22:10.490Z,16.25
2023-05-14T10:24:39.079Z,18.80
2023-05-14T10:27:06.131Z,19.58
2023-05-14T10:29:37.418Z,16.08
2023-05-14T10:32:09.158Z,17.13
2023-05-14T10:34:41.240Z,20.85
2023-05-14T10:37:10.834Z,18.52
2023-05-14T10:39:59.931Z,17.50
2023-05-14T10:42:31.709Z,19.02
2023-05-14T10:45:01.787Z,14.32
2023-05-14T10:47:29.271Z,15.38
2023-05-14T10:49:57.959Z,15.63
2023-05-14T10:52:25.729Z,16.38
2023-05-14T10:55:03.183Z,15.13
2023-05-14T10:57:32.177Z,20.73
2023-05-14T11:00:01.132Z,15.43
2023-05-14T11:02:32.566Z,18.30
2023-05-14T11:05:11.658Z,14.07
2023-05-14T11:07:45.658Z,13.98
2023-05-14T11:10:17.487Z,16.33
2023-05-14T11:12:49.900Z,16.80
2023-05-14T11:15:21.765Z,15.52
2023-05-14T11:17:49.732Z,19.50
2023-05-14T11:20:18.677Z,18.15
2023-05-14T11:22:47.206Z,17.25
2023-05-14T11:25:14.833Z,15.52
2023-05-14T11:27:44.086Z,18.70
2023-05-14T11:30:15.079Z,12.77
2023-05-14T11:32:43.724Z,14.43
2023-05-14T11:35:10.703Z,16.23
2023-05-14T11:37:37.794Z,15.13
2023-05-14T11:40:14.923Z,12.55
2023-05-14T11:42:41.799Z,16.27
2023-05-14T11:45:12.628Z,15.57
2023-05-14T11:47:40.601Z,18.42
2023-05-14T11:50:09.406Z,18.70
2023-05-14T11:52:41.006Z,16.23
2023-05-14T11:55:12.705Z,16.85
2023-05-14T11:57:40.854Z,15.10
2023-05-14T12:00:16.920Z,13.50
2023-05-14T12:02:43.853Z,17.00
2023-05-14T12:05:13.391Z,13.68
2023-05-14T12:07:40.266Z,14.15
2023-05-14T12:10:07.930Z,15.18
2023-05-14T12:12:37.602Z,13.95
2023-05-14T12:15:14.674Z,14.85
2023-05-14T12:17:41.898Z,14.07
2023-05-14T12:20:11.013Z,16.98
2023-05-14T12:22:38.269Z,13.32
2023-05-14T12:25:11.143Z,14.13
2023-05-14T12:27:38.043Z,13.02
2023-05-14T12:30:20.558Z,18.13
2023-05-14T12:32:51.727Z,15.10
2023-05-14T12:35:19.244Z,15.25
2023-05-14T12:37:46.311Z,18.05
2023-05-14T12:40:13.338Z,14.52
2023-05-14T12:42:40.215Z,15.13
2023-05-14T12:45:08.539Z,17.10
2023-05-14T12:47:36.281Z,17.10
2023-05-14T12:50:03.573Z,19.05
2023-05-14T12:52:37.971Z,14.82
2023-05-14T12:55:09.654Z,15.88
2023-05-14T12:57:38.467Z,14.88
2023-05-14T13:00:13.005Z,11.60
2023-05-14T13:02:42.832Z,14.52
2023-05-14T13:05:10.792Z,16.90
2023-05-14T13:07:37.731Z,15.77
2023-05-14T13:10:08.123Z,16.65
2023-05-14T13:12:34.955Z,15.73
2023-05-14T13:15:01.643Z,15.43
2023-05-14T13:17:28.459Z,18.35
2023-05-14T13:19:55.236Z,18.98
2023-05-14T13:22:21.998Z,22.33
2023-05-14T13:24:48.779Z,22.80
2023-05-14T13:27:15.557Z,20.77
2023-05-14T13:29:42.273Z,12.57
2023-05-14T13:32:09.096Z,18.83
2023-05-14T13:34:36.280Z,16.90
2023-05-14T13:37:03.827Z,16.30
2023-05-14T13:39:30.734Z,16.13
2023-05-14T13:41:57.587Z,16.67
2023-05-14T13:44:24.616Z,17.13
2023-05-14T13:46:51.551Z,22.83
2023-05-14T13:49:18.489Z,16.77
2023-05-14T13:51:45.500Z,14.30
2023-05-14T13:54:12.364Z,14.90
2023-05-14T13:56:39.097Z,15.43
2023-05-14T13:59:06.051Z,15.38
2023-05-14T14:01:32.919Z,14.55
2023-05-14T14:03:59.722Z,17.30
2023-05-14T14:06:29.648Z,17.83
2023-05-14T14:08:56.439Z,17.00
2023-05-14T14:11:23.365Z,13.88
2023-05-14T14:13:50.128Z,13.27
2023-05-14T14:16:16.975Z,16.73
2023-05-14T14:18:43.826Z,15.77
2023-05-14T14:21:10.975Z,17.13
2023-05-14T14:23:37.805Z,16.73
2023-05-14T14:26:04.610Z,16.17
2023-05-14T14:28:31.428Z,14.65
2023-05-14T14:30:58.490Z,15.57
2023-05-14T14:33:25.556Z,15.60
2023-05-14T14:35:52.970Z,17.73
2023-05-14T14:38:19.833Z,15.63
2023-05-14T14:40:46.912Z,12.60
2023-05-14T14:43:13.669Z,15.35
2023-05-14T14:45:40.624Z,15.98
2023-05-14T14:48:33.759Z,16.05
2023-05-14T14:51:04.164Z,16.17
2023-05-14T14:53:31.183Z,14.23
2023-05-14T14:55:58.072Z,16.50
2023-05-14T14:58:25.013Z,16.02
2023-05-14T15:00:53.453Z,16.63
2023-05-14T15:03:21.327Z,14.88
2023-05-14T15:05:48.533Z,15.27
2023-05-14T15:08:15.728Z,12.88
2023-05-14T15:10:42.678Z,14.40
2023-05-14T15:13:09.564Z,14.20
2023-05-14T15:15:36.381Z,16.80
2023-05-14T15:18:04.332Z,15.75
2023-05-14T15:20:31.155Z,15.10
2023-05-14T15:22:57.947Z,15.35
2023-05-14T15:25:26.301Z,15.10
2023-05-14T15:27:53.335Z,14.77
2023-05-14T15:30:20.250Z,13.00
2023-05-14T15:32:47.098Z,13.35
2023-05-14T15:35:14.276Z,12.52
2023-05-14T15:37:43.984Z,17.08
2023-05-14T15:40:11.555Z,13.40
2023-05-14T15:42:43.904Z,12.68
2023-05-14T15:45:12.485Z,15.07
2023-05-14T15:47:39.891Z,14.07
2023-05-14T15:50:07.595Z,13.60
2023-05-14T15:52:35.092Z,11.93
2023-05-14T15:55:02.208Z,15.57
2023-05-14T15:57:28.894Z,14.02
2023-05-14T15:59:56.740Z,13.15
2023-05-14T16:02:23.553Z,16.40
2023-05-14T16:04:50.414Z,14.75
2023-05-14T16:07:17.171Z,13.15
2023-05-14T16:09:43.979Z,10.88
2023-05-14T16:12:11.570Z,12.38
2023-05-14T16:14:39.954Z,12.27
2023-05-14T16:17:08.335Z,11.63
2023-05-14T16:19:35.061Z,16.50
2023-05-14T16:22:01.846Z,14.70
2023-05-14T16:24:28.585Z,17.15
2023-05-14T16:26:55.381Z,13.88
2023-05-14T16:29:22.375Z,12.23
2023-05-14T16:31:49.090Z,13.30
2023-05-14T16:34:16.179Z,11.60
2023-05-14T16:36:43.280Z,12.13
2023-05-14T16:39:11.452Z,12.15
2023-05-14T16:41:38.170Z,17.42
2023-05-14T16:44:04.999Z,12.75
2023-05-14T16:46:32.315Z,10.90
2023-05-14T16:48:59.188Z,10.52
2023-05-14T16:51:25.973Z,10.90
2023-05-14T16:53:54.669Z,12.27
2023-05-14T16:56:22.518Z,11.75
2023-05-14T16:58:49.491Z,11.32
2023-05-14T17:01:16.366Z,9.93
2023-05-14T17:03:44.703Z,8.77
2023-05-14T17:06:11.517Z,13.20
2023-05-14T17:08:38.219Z,13.95
2023-05-14T17:11:05.971Z,13.00
2023-05-14T17:13:33.226Z,16.48
2023-05-14T17:16:00.918Z,11.70
2023-05-14T17:18:28.385Z,9.32
2023-05-14T17:20:55.242Z,11.68
2023-05-14T17:23:22.005Z,13.55
2023-05-14T17:25:48.824Z,9.88
2023-05-14T17:28:15.783Z,11.00
2023-05-14T17:30:42.544Z,9.63
2023-05-14T17:33:09.580Z,9.20
2023-05-14T17:35:37.282Z,12.02
2023-05-14T17:38:04.179Z,14.40
2023-05-14T17:40:30.883Z,9.52
2023-05-14T17:42:57.627Z,10.23
2023-05-14T17:45:24.668Z,10.05
2023-05-14T17:47:53.902Z,11.75
2023-05-14T17:50:20.855Z,13.75
2023-05-14T17:52:47.677Z,8.95
2023-05-14T17:55:14.605Z,11.60
2023-05-14T17:57:42.108Z,10.65
2023-05-14T18:00:09.385Z,10.60
2023-05-14T18:02:36.172Z,12.63
2023-05-14T18:05:03.067Z,10.93
2023-05-14T18:07:30.787Z,12.20
2023-05-14T18:09:58.001Z,13.82
2023-05-14T18:12:27.683Z,12.48
2023-05-14T18:14:54.583Z,13.02
2023-05-14T18:17:21.544Z,13.38
2023-05-14T18:19:48.432Z,15.13
2023-05-14T18:22:15.709Z,15.45
2023-05-14T18:24:44.186Z,14.82
2023-05-14T18:27:11.065Z,12.48
2023-05-14T18:29:37.843Z,14.50
2023-05-14T18:32:05.030Z,13.98
2023-05-14T18:34:31.750Z,13.15
2023-05-14T18:36:58.606Z,11.82
2023-05-14T18:39:25.355Z,11.40
2023-05-14T18:41:52.223Z,11.18
2023-05-14T18:44:19.133Z,11.38
2023-05-14T18:46:46.168Z,10.45
2023-05-14T18:49:13.069Z,13.05
2023-05-14T18:51:39.980Z,17.75
2023-05-14T18:54:06.675Z,9.80
2023-05-14T18:56:33.878Z,13.60
2023-05-14T18:59:00.700Z,13.13
2023-05-14T19:01:28.055Z,15.50
2023-05-14T19:03:55.030Z,16.83
2023-05-14T19:06:22.046Z,14.75
2023-05-14T19:08:48.797Z,13.48
2023-05-14T19:11:16.330Z,14.50
2023-05-14T19:13:46.589Z,16.52
2023-05-14T19:16:13.639Z,15.82
2023-05-14T19:18:40.475Z,13.25
2023-05-14T19:21:07.250Z,15.93
2023-05-14T19:23:33.994Z,15.57
2023-05-14T19:26:01.147Z,14.88
2023-05-14T19:28:27.897Z,19.45
2023-05-14T19:30:54.628Z,16.85
2023-05-14T19:33:21.434Z,18.40
2023-05-14T19:35:48.248Z,18.50
2023-05-14T19:38:15.092Z,21.17
2023-05-14T19:40:43.649Z,22.30
2023-05-14T19:43:11.954Z,20.63
2023-05-14T19:45:39.005Z,22.02
2023-05-14T19:48:06.601Z,22.23
2023-05-14T19:50:33.908Z,23.45
2023-05-14T19:53:01.493Z,22.85
2023-05-14T19:55:28.269Z,23.73
2023-05-14T19:57:54.971Z,23.10
2023-05-14T20:00:22.875Z,25.33
2023-05-14T20:02:49.756Z,22.90
2023-05-14T20:05:16.713Z,22.40
2023-05-14T20:07:43.836Z,22.58
2023-05-14T20:10:10.907Z,24.08
2023-05-14T20:12:37.631Z,18.77
2023-05-14T20:15:04.988Z,24.48
2023-05-14T20:17:31.725Z,22.90
2023-05-14T20:19:58.506Z,25.50
2023-05-14T20:22:25.684Z,26.20
2023-05-14T20:24:52.710Z,25.02
2023-05-14T20:27:19.577Z,25.15
2023-05-14T20:29:46.943Z,25.77
2023-05-14T20:32:14.874Z,23.40
2023-05-14T20:34:41.614Z,20.92
2023-05-14T20:37:08.800Z,20.05
2023-05-14T20:39:35.818Z,17.65
2023-05-14T20:42:02.549Z,18.55
2023-05-14T20:44:29.293Z,27.67
2023-05-14T20:46:56.109Z,21.65
2023-05-14T20:49:22.807Z,17.10
2023-05-14T20:51:49.578Z,21.00
2023-05-14T20:54:16.454Z,22.30
2023-05-14T20:56:43.457Z,20.33
2023-05-14T20:59:10.242Z,20.35
2023-05-14T21:01:37.053Z,23.63
2023-05-14T21:04:04.070Z,24.33
2023-05-14T21:06:30.861Z,20.83
2023-05-14T21:08:57.605Z,19.25
2023-05-14T21:11:24.422Z,19.17
2023-05-14T21:13:51.267Z,20.33
2023-05-14T21:16:19.198Z,19.92
2023-05-14T21:18:46.429Z,19.23
2023-05-14T21:21:13.550Z,24.02
2023-05-14T21:23:40.314Z,22.88
2023-05-14T21:26:07.089Z,22.67
2023-05-14T21:28:33.868Z,25.15
2023-05-14T21:31:00.669Z,25.45
2023-05-14T21:33:27.510Z,24.40
2023-05-14T21:35:54.376Z,25.52
2023-05-14T21:38:21.293Z,27.30
2023-05-14T21:40:48.084Z,25.13
2023-05-14T21:43:14.890Z,22.55
2023-05-14T21:45:43.811Z,23.65
2023-05-14T21:48:10.764Z,25.73
2023-05-14T21:50:37.659Z,24.63
2023-05-14T21:53:04.420Z,28.55
2023-05-14T21:55:31.706Z,24.73
2023-05-14T21:57:58.686Z,24.33
2023-05-14T22:00:25.541Z,27.27
2023-05-14T22:02:52.952Z,27.70
2023-05-14T22:05:20.337Z,22.10
2023-05-14T22:07:47.038Z,28.00
2023-05-14T22:10:15.252Z,21.45
2023-05-14T22:12:43.050Z,26.45
2023-05-14T22:15:10.399Z,28.65
2023-05-14T22:17:37.731Z,26.33
2023-05-14T22:20:07.605Z,28.23
2023-05-14T22:22:34.588Z,29.42
2023-05-14T22:25:01.499Z,30.63
2023-05-14T22:27:28.295Z,32.22
2023-05-14T22:29:55.239Z,33.47
2023-05-14T22:32:22.150Z,34.45
2023-05-14T22:34:49.034Z,34.53
2023-05-14T22:37:16.122Z,31.83
2023-05-14T22:39:43.441Z,36.85
2023-05-14T22:42:10.949Z,32.33
2023-05-14T22:44:37.807Z,33.83
2023-05-14T22:47:07.762Z,40.17
2023-05-14T22:49:34.505Z,37.25
2023-05-14T22:52:01.304Z,38.15
2023-05-14T22:54:28.097Z,37.75
2023-05-14T22:56:54.835Z,41.88
2023-05-14T22:59:23.602Z,35.80
2023-05-14T23:01:50.949Z,39.80
2023-05-14T23:04:17.839Z,43.10
2023-05-14T23:06:44.717Z,42.42
2023-05-14T23:09:11.400Z,42.47
2023-05-14T23:11:38.282Z,43.65
2023-05-14T23:14:05.008Z,37.80
2023-05-14T23:16:31.873Z,47.92
2023-05-14T23:18:58.822Z,45.33
2023-05-14T23:21:25.816Z,49.22
2023-05-14T23:23:52.582Z,42.33
2023-05-14T23:26:19.388Z,42.63
2023-05-14T23:28:47.380Z,42.55
2023-05-14T23:31:14.199Z,43.58
2023-05-14T23:33:41.041Z,45.25
2023-05-14T23:36:08.331Z,46.20
2023-05-14T23:38:35.385Z,52.17
2023-05-14T23:41:02.496Z,48.85
2023-05-14T23:43:29.218Z,47.60
2023-05-14T23:45:56.188Z,45.00
2023-05-14T23:48:23.010Z,41.35
2023-05-14T23:50:49.708Z,34.53
2023-05-14T23:53:16.409Z,31.15
2023-05-14T23:55:43.201Z,31.33
2023-05-14T23:58:10.001Z,28.02
